sensor_id;sensor_type;location;lat;lon;timestamp;pressure;altitude;pressure_sealevel;temperature
34125;BMP280;20110;53.120;5.786;2023-12-29T00:01:58;100316.66;;;16.28
34125;BMP280;20110;53.120;5.786;2023-12-29T00:04:27;100311.88;;;16.26
34125;BMP280;20110;53.120;5.786;2023-12-29T00:06:52;100183.00;;;15.47
34125;BMP280;20110;53.120;5.786;2023-12-29T00:09:18;100227.34;;;15.77
34125;BMP280;20110;53.120;5.786;2023-12-29T00:11:47;100204.09;;;15.79
34125;BMP280;20110;53.120;5.786;2023-12-29T00:14:13;100210.03;;;15.88
34125;BMP280;20110;53.120;5.786;2023-12-29T00:16:39;100284.66;;;16.39
34125;BMP280;20110;53.120;5.786;2023-12-29T00:19:05;100294.84;;;16.50
34125;BMP280;20110;53.120;5.786;2023-12-29T00:21:30;100293.28;;;16.57
34125;BMP280;20110;53.120;5.786;2023-12-29T00:23:56;100275.66;;;16.35
34125;BMP280;20110;53.120;5.786;2023-12-29T00:26:22;100284.81;;;16.32
34125;BMP280;20110;53.120;5.786;2023-12-29T00:28:48;100236.69;;;16.14
34125;BMP280;20110;53.120;5.786;2023-12-29T00:31:14;100282.28;;;16.53
34125;BMP280;20110;53.120;5.786;2023-12-29T00:33:46;100263.22;;;16.39
34125;BMP280;20110;53.120;5.786;2023-12-29T00:36:19;100274.25;;;16.53
34125;BMP280;20110;53.120;5.786;2023-12-29T00:38:45;100238.94;;;16.18
34125;BMP280;20110;53.120;5.786;2023-12-29T00:41:11;100278.19;;;16.33
34125;BMP280;20110;53.120;5.786;2023-12-29T00:43:37;100243.31;;;16.13
34125;BMP280;20110;53.120;5.786;2023-12-29T00:46:03;100247.56;;;16.16
34125;BMP280;20110;53.120;5.786;2023-12-29T00:48:30;100221.50;;;16.36
34125;BMP280;20110;53.120;5.786;2023-12-29T00:50:56;100231.09;;;16.49
34125;BMP280;20110;53.120;5.786;2023-12-29T00:53:21;100216.16;;;16.46
34125;BMP280;20110;53.120;5.786;2023-12-29T00:55:47;100232.34;;;16.58
34125;BMP280;20110;53.120;5.786;2023-12-29T00:58:13;100149.00;;;16.05
34125;BMP280;20110;53.120;5.786;2023-12-29T01:00:39;100211.19;;;16.42
34125;BMP280;20110;53.120;5.786;2023-12-29T01:03:05;100219.38;;;16.54
34125;BMP280;20110;53.120;5.786;2023-12-29T01:05:30;100166.09;;;16.10
34125;BMP280;20110;53.120;5.786;2023-12-29T01:07:56;100112.66;;;15.83
34125;BMP280;20110;53.120;5.786;2023-12-29T01:10:22;100119.84;;;16.00
34125;BMP280;20110;53.120;5.786;2023-12-29T01:12:47;100148.75;;;16.21
34125;BMP280;20110;53.120;5.786;2023-12-29T01:15:13;100208.66;;;16.64
34125;BMP280;20110;53.120;5.786;2023-12-29T01:17:39;100112.22;;;16.15
34125;BMP280;20110;53.120;5.786;2023-12-29T01:20:05;100242.06;;;16.72
34125;BMP280;20110;53.120;5.786;2023-12-29T01:22:31;100215.69;;;16.78
34125;BMP280;20110;53.120;5.786;2023-12-29T01:25:00;100168.59;;;16.56
34125;BMP280;20110;53.120;5.786;2023-12-29T01:27:27;100191.88;;;16.44
34125;BMP280;20110;53.120;5.786;2023-12-29T01:29:52;100093.47;;;16.25
34125;BMP280;20110;53.120;5.786;2023-12-29T01:32:19;100167.91;;;16.27
34125;BMP280;20110;53.120;5.786;2023-12-29T01:34:45;100086.72;;;16.24
34125;BMP280;20110;53.120;5.786;2023-12-29T01:37:10;100203.41;;;16.66
34125;BMP280;20110;53.120;5.786;2023-12-29T01:39:36;100161.59;;;16.41
34125;BMP280;20110;53.120;5.786;2023-12-29T01:42:02;100199.91;;;16.53
34125;BMP280;20110;53.120;5.786;2023-12-29T01:44:28;100087.69;;;15.71
34125;BMP280;20110;53.120;5.786;2023-12-29T01:46:56;100198.31;;;16.60
34125;BMP280;20110;53.120;5.786;2023-12-29T01:49:22;100195.13;;;16.52
34125;BMP280;20110;53.120;5.786;2023-12-29T01:51:54;100170.00;;;16.38
34125;BMP280;20110;53.120;5.786;2023-12-29T01:54:21;100206.53;;;16.43
34125;BMP280;20110;53.120;5.786;2023-12-29T01:56:49;100171.00;;;16.13
34125;BMP280;20110;53.120;5.786;2023-12-29T01:59:16;100119.28;;;15.82
34125;BMP280;20110;53.120;5.786;2023-12-29T02:01:43;100182.13;;;15.91
34125;BMP280;20110;53.120;5.786;2023-12-29T02:04:09;100204.69;;;16.07
34125;BMP280;20110;53.120;5.786;2023-12-29T02:06:38;100212.53;;;15.86
34125;BMP280;20110;53.120;5.786;2023-12-29T02:09:04;100215.66;;;15.92
34125;BMP280;20110;53.120;5.786;2023-12-29T02:11:31;100174.59;;;15.60
34125;BMP280;20110;53.120;5.786;2023-12-29T02:13:58;100188.13;;;15.62
34125;BMP280;20110;53.120;5.786;2023-12-29T02:16:46;100224.66;;;15.77
34125;BMP280;20110;53.120;5.786;2023-12-29T02:21:58;100225.66;;;15.45
34125;BMP280;20110;53.120;5.786;2023-12-29T02:24:24;100237.41;;;15.32
34125;BMP280;20110;53.120;5.786;2023-12-29T02:26:56;100204.22;;;15.35
34125;BMP280;20110;53.120;5.786;2023-12-29T02:29:24;100242.19;;;15.61
34125;BMP280;20110;53.120;5.786;2023-12-29T02:31:54;100144.31;;;15.12
34125;BMP280;20110;53.120;5.786;2023-12-29T02:34:24;100244.97;;;15.90
34125;BMP280;20110;53.120;5.786;2023-12-29T02:36:51;100233.84;;;15.93
34125;BMP280;20110;53.120;5.786;2023-12-29T02:39:17;100226.44;;;15.74
34125;BMP280;20110;53.120;5.786;2023-12-29T02:41:43;100219.84;;;15.75
34125;BMP280;20110;53.120;5.786;2023-12-29T02:44:09;100166.13;;;15.54
34125;BMP280;20110;53.120;5.786;2023-12-29T02:46:35;100230.81;;;16.26
34125;BMP280;20110;53.120;5.786;2023-12-29T02:49:00;100203.31;;;16.25
34125;BMP280;20110;53.120;5.786;2023-12-29T02:51:26;100178.34;;;16.23
34125;BMP280;20110;53.120;5.786;2023-12-29T02:53:52;100189.91;;;16.25
34125;BMP280;20110;53.120;5.786;2023-12-29T02:56:17;100228.69;;;16.53
34125;BMP280;20110;53.120;5.786;2023-12-29T02:58:43;100211.34;;;16.44
34125;BMP280;20110;53.120;5.786;2023-12-29T03:01:11;100235.19;;;16.50
34125;BMP280;20110;53.120;5.786;2023-12-29T03:03:37;100096.16;;;15.58
34125;BMP280;20110;53.120;5.786;2023-12-29T03:06:06;100176.09;;;16.09
34125;BMP280;20110;53.120;5.786;2023-12-29T03:08:31;100190.31;;;15.93
34125;BMP280;20110;53.120;5.786;2023-12-29T03:10:58;100168.00;;;15.71
34125;BMP280;20110;53.120;5.786;2023-12-29T03:13:24;100151.16;;;15.41
34125;BMP280;20110;53.120;5.786;2023-12-29T03:15:50;100222.03;;;16.06
34125;BMP280;20110;53.120;5.786;2023-12-29T03:18:15;100222.19;;;16.08
34125;BMP280;20110;53.120;5.786;2023-12-29T03:20:41;100213.13;;;15.84
34125;BMP280;20110;53.120;5.786;2023-12-29T03:23:07;100180.72;;;15.44
34125;BMP280;20110;53.120;5.786;2023-12-29T03:25:33;100098.69;;;14.73
34125;BMP280;20110;53.120;5.786;2023-12-29T03:27:58;100241.88;;;15.84
34125;BMP280;20110;53.120;5.786;2023-12-29T03:30:24;100244.69;;;15.95
34125;BMP280;20110;53.120;5.786;2023-12-29T03:32:50;100235.69;;;15.91
34125;BMP280;20110;53.120;5.786;2023-12-29T03:35:16;100089.53;;;15.03
34125;BMP280;20110;53.120;5.786;2023-12-29T03:37:42;100222.28;;;15.91
34125;BMP280;20110;53.120;5.786;2023-12-29T03:40:08;100192.72;;;15.52
34125;BMP280;20110;53.120;5.786;2023-12-29T03:42:34;100220.38;;;15.64
34125;BMP280;20110;53.120;5.786;2023-12-29T03:45:00;100238.13;;;15.60
34125;BMP280;20110;53.120;5.786;2023-12-29T03:47:25;100146.13;;;15.09
34125;BMP280;20110;53.120;5.786;2023-12-29T03:49:51;100184.19;;;15.27
34125;BMP280;20110;53.120;5.786;2023-12-29T03:52:16;100238.44;;;15.73
34125;BMP280;20110;53.120;5.786;2023-12-29T03:54:42;100218.84;;;15.71
34125;BMP280;20110;53.120;5.786;2023-12-29T03:57:08;100214.94;;;15.82
34125;BMP280;20110;53.120;5.786;2023-12-29T03:59:36;100197.00;;;15.65
34125;BMP280;20110;53.120;5.786;2023-12-29T04:02:03;100133.81;;;15.23
34125;BMP280;20110;53.120;5.786;2023-12-29T04:04:29;100020.41;;;14.90
34125;BMP280;20110;53.120;5.786;2023-12-29T04:06:54;100119.94;;;15.08
34125;BMP280;20110;53.120;5.786;2023-12-29T04:09:20;100188.28;;;15.74
34125;BMP280;20110;53.120;5.786;2023-12-29T04:11:46;100223.50;;;15.70
34125;BMP280;20110;53.120;5.786;2023-12-29T04:14:11;100180.38;;;15.57
34125;BMP280;20110;53.120;5.786;2023-12-29T04:16:38;100221.84;;;15.85
34125;BMP280;20110;53.120;5.786;2023-12-29T04:19:04;100202.31;;;15.55
34125;BMP280;20110;53.120;5.786;2023-12-29T04:21:30;100152.06;;;15.17
34125;BMP280;20110;53.120;5.786;2023-12-29T04:23:56;100231.59;;;15.53
34125;BMP280;20110;53.120;5.786;2023-12-29T04:26:22;100214.88;;;15.62
34125;BMP280;20110;53.120;5.786;2023-12-29T04:28:47;100222.75;;;15.60
34125;BMP280;20110;53.120;5.786;2023-12-29T04:31:13;100251.56;;;15.69
34125;BMP280;20110;53.120;5.786;2023-12-29T04:33:38;100109.38;;;15.10
34125;BMP280;20110;53.120;5.786;2023-12-29T04:36:04;100146.28;;;15.21
34125;BMP280;20110;53.120;5.786;2023-12-29T04:38:30;100236.81;;;15.97
34125;BMP280;20110;53.120;5.786;2023-12-29T04:40:56;100217.22;;;16.04
34125;BMP280;20110;53.120;5.786;2023-12-29T04:43:22;100222.88;;;15.99
34125;BMP280;20110;53.120;5.786;2023-12-29T04:45:47;100127.03;;;15.22
34125;BMP280;20110;53.120;5.786;2023-12-29T04:48:13;100232.88;;;15.89
34125;BMP280;20110;53.120;5.786;2023-12-29T04:50:39;100211.84;;;15.95
34125;BMP280;20110;53.120;5.786;2023-12-29T04:53:04;100208.38;;;16.02
34125;BMP280;20110;53.120;5.786;2023-12-29T04:55:30;100159.88;;;15.78
34125;BMP280;20110;53.120;5.786;2023-12-29T04:57:56;100229.22;;;16.13
34125;BMP280;20110;53.120;5.786;2023-12-29T05:00:21;100161.63;;;15.57
34125;BMP280;20110;53.120;5.786;2023-12-29T05:02:47;100173.84;;;15.50
34125;BMP280;20110;53.120;5.786;2023-12-29T05:05:13;100214.13;;;15.89
34125;BMP280;20110;53.120;5.786;2023-12-29T05:07:38;100234.59;;;16.03
34125;BMP280;20110;53.120;5.786;2023-12-29T05:10:04;100231.03;;;15.91
34125;BMP280;20110;53.120;5.786;2023-12-29T05:12:30;100226.88;;;15.71
34125;BMP280;20110;53.120;5.786;2023-12-29T05:14:56;100231.75;;;16.01
34125;BMP280;20110;53.120;5.786;2023-12-29T05:17:21;100229.22;;;15.94
34125;BMP280;20110;53.120;5.786;2023-12-29T05:19:47;100241.78;;;16.10
34125;BMP280;20110;53.120;5.786;2023-12-29T05:22:13;100244.28;;;15.99
34125;BMP280;20110;53.120;5.786;2023-12-29T05:24:43;100198.56;;;15.68
34125;BMP280;20110;53.120;5.786;2023-12-29T05:27:09;100242.00;;;15.86
34125;BMP280;20110;53.120;5.786;2023-12-29T05:29:34;100122.91;;;15.12
34125;BMP280;20110;53.120;5.786;2023-12-29T05:32:00;100247.38;;;15.95
34125;BMP280;20110;53.120;5.786;2023-12-29T05:34:28;100216.09;;;15.88
34125;BMP280;20110;53.120;5.786;2023-12-29T05:36:53;100223.72;;;16.01
34125;BMP280;20110;53.120;5.786;2023-12-29T05:39:19;100216.13;;;16.07
34125;BMP280;20110;53.120;5.786;2023-12-29T05:41:45;100201.16;;;16.04
34125;BMP280;20110;53.120;5.786;2023-12-29T05:44:10;100188.47;;;15.95
34125;BMP280;20110;53.120;5.786;2023-12-29T05:46:36;100239.81;;;16.30
34125;BMP280;20110;53.120;5.786;2023-12-29T05:49:02;100250.13;;;16.53
34125;BMP280;20110;53.120;5.786;2023-12-29T05:51:28;100230.94;;;16.47
34125;BMP280;20110;53.120;5.786;2023-12-29T05:53:53;100246.19;;;16.64
34125;BMP280;20110;53.120;5.786;2023-12-29T05:56:19;100220.34;;;16.30
34125;BMP280;20110;53.120;5.786;2023-12-29T05:58:45;100167.44;;;15.72
34125;BMP280;20110;53.120;5.786;2023-12-29T06:01:11;100162.38;;;15.67
34125;BMP280;20110;53.120;5.786;2023-12-29T06:03:37;100184.28;;;16.11
34125;BMP280;20110;53.120;5.786;2023-12-29T06:06:03;100235.94;;;15.85
34125;BMP280;20110;53.120;5.786;2023-12-29T06:08:29;100165.00;;;15.48
34125;BMP280;20110;53.120;5.786;2023-12-29T06:10:55;100232.88;;;15.89
34125;BMP280;20110;53.120;5.786;2023-12-29T06:13:20;100163.50;;;15.27
34125;BMP280;20110;53.120;5.786;2023-12-29T06:15:46;100155.81;;;15.51
34125;BMP280;20110;53.120;5.786;2023-12-29T06:18:12;100183.13;;;16.05
34125;BMP280;20110;53.120;5.786;2023-12-29T06:20:37;100204.78;;;15.80
34125;BMP280;20110;53.120;5.786;2023-12-29T06:23:03;100205.13;;;15.94
34125;BMP280;20110;53.120;5.786;2023-12-29T06:25:29;100182.38;;;15.66
34125;BMP280;20110;53.120;5.786;2023-12-29T06:27:55;100232.19;;;16.07
34125;BMP280;20110;53.120;5.786;2023-12-29T06:30:20;100158.28;;;15.75
34125;BMP280;20110;53.120;5.786;2023-12-29T06:32:46;100233.31;;;16.14
34125;BMP280;20110;53.120;5.786;2023-12-29T06:35:12;100196.06;;;15.79
34125;BMP280;20110;53.120;5.786;2023-12-29T06:37:39;100154.09;;;15.36
34125;BMP280;20110;53.120;5.786;2023-12-29T06:40:08;100236.19;;;15.79
34125;BMP280;20110;53.120;5.786;2023-12-29T06:42:34;100260.63;;;15.93
34125;BMP280;20110;53.120;5.786;2023-12-29T06:45:00;100235.09;;;15.83
34125;BMP280;20110;53.120;5.786;2023-12-29T06:47:25;100264.72;;;16.04
34125;BMP280;20110;53.120;5.786;2023-12-29T06:49:51;100148.19;;;15.37
34125;BMP280;20110;53.120;5.786;2023-12-29T06:52:17;100193.41;;;15.89
34125;BMP280;20110;53.120;5.786;2023-12-29T06:54:42;100230.50;;;16.02
34125;BMP280;20110;53.120;5.786;2023-12-29T06:57:08;100256.31;;;16.27
34125;BMP280;20110;53.120;5.786;2023-12-29T06:59:34;100198.91;;;15.91
34125;BMP280;20110;53.120;5.786;2023-12-29T07:02:00;100216.41;;;16.02
34125;BMP280;20110;53.120;5.786;2023-12-29T07:04:25;100200.97;;;15.73
34125;BMP280;20110;53.120;5.786;2023-12-29T07:06:51;100233.44;;;16.06
34125;BMP280;20110;53.120;5.786;2023-12-29T07:09:17;100187.63;;;15.93
34125;BMP280;20110;53.120;5.786;2023-12-29T07:11:47;100246.44;;;16.10
34125;BMP280;20110;53.120;5.786;2023-12-29T07:14:14;100213.56;;;16.19
34125;BMP280;20110;53.120;5.786;2023-12-29T07:16:39;100232.34;;;16.09
34125;BMP280;20110;53.120;5.786;2023-12-29T07:19:05;100235.88;;;16.22
34125;BMP280;20110;53.120;5.786;2023-12-29T07:21:31;100251.34;;;16.13
34125;BMP280;20110;53.120;5.786;2023-12-29T07:23:56;100198.09;;;15.98
34125;BMP280;20110;53.120;5.786;2023-12-29T07:26:22;100252.47;;;16.01
34125;BMP280;20110;53.120;5.786;2023-12-29T07:28:48;100212.41;;;15.84
34125;BMP280;20110;53.120;5.786;2023-12-29T07:31:13;100268.00;;;16.12
34125;BMP280;20110;53.120;5.786;2023-12-29T07:33:39;100293.06;;;16.07
34125;BMP280;20110;53.120;5.786;2023-12-29T07:36:05;100240.03;;;15.86
34125;BMP280;20110;53.120;5.786;2023-12-29T07:38:31;100260.34;;;15.89
34125;BMP280;20110;53.120;5.786;2023-12-29T07:40:56;100199.47;;;15.44
34125;BMP280;20110;53.120;5.786;2023-12-29T07:43:22;100167.59;;;15.28
34125;BMP280;20110;53.120;5.786;2023-12-29T07:45:48;100285.06;;;15.70
34125;BMP280;20110;53.120;5.786;2023-12-29T07:48:13;100278.44;;;15.71
34125;BMP280;20110;53.120;5.786;2023-12-29T07:50:39;100248.53;;;15.65
34125;BMP280;20110;53.120;5.786;2023-12-29T07:53:06;100198.66;;;15.14
34125;BMP280;20110;53.120;5.786;2023-12-29T07:55:31;100226.75;;;15.69
34125;BMP280;20110;53.120;5.786;2023-12-29T07:57:57;100264.94;;;15.69
34125;BMP280;20110;53.120;5.786;2023-12-29T08:00:23;100236.75;;;15.68
34125;BMP280;20110;53.120;5.786;2023-12-29T08:02:49;100197.03;;;15.11
34125;BMP280;20110;53.120;5.786;2023-12-29T08:05:15;100229.53;;;15.25
34125;BMP280;20110;53.120;5.786;2023-12-29T08:07:42;100265.75;;;15.35
34125;BMP280;20110;53.120;5.786;2023-12-29T08:10:08;100288.47;;;15.44
34125;BMP280;20110;53.120;5.786;2023-12-29T08:12:35;100268.72;;;15.39
34125;BMP280;20110;53.120;5.786;2023-12-29T08:15:01;100286.38;;;15.52
34125;BMP280;20110;53.120;5.786;2023-12-29T08:17:28;100251.34;;;15.31
34125;BMP280;20110;53.120;5.786;2023-12-29T08:19:54;100291.88;;;15.54
34125;BMP280;20110;53.120;5.786;2023-12-29T08:22:21;100244.69;;;15.49
34125;BMP280;20110;53.120;5.786;2023-12-29T08:24:46;100260.56;;;15.37
34125;BMP280;20110;53.120;5.786;2023-12-29T08:27:13;100290.78;;;15.57
34125;BMP280;20110;53.120;5.786;2023-12-29T08:29:39;100279.56;;;15.41
34125;BMP280;20110;53.120;5.786;2023-12-29T08:32:05;100196.97;;;14.92
34125;BMP280;20110;53.120;5.786;2023-12-29T08:34:31;100297.44;;;15.39
34125;BMP280;20110;53.120;5.786;2023-12-29T08:36:57;100186.66;;;14.88
34125;BMP280;20110;53.120;5.786;2023-12-29T08:39:23;100196.97;;;14.92
34125;BMP280;20110;53.120;5.786;2023-12-29T08:41:48;100170.19;;;15.09
34125;BMP280;20110;53.120;5.786;2023-12-29T08:44:17;100159.56;;;14.75
34125;BMP280;20110;53.120;5.786;2023-12-29T08:46:43;100253.03;;;15.26
34125;BMP280;20110;53.120;5.786;2023-12-29T08:49:08;100278.44;;;15.35
34125;BMP280;20110;53.120;5.786;2023-12-29T08:51:34;100298.88;;;15.40
34125;BMP280;20110;53.120;5.786;2023-12-29T08:54:00;100306.63;;;15.46
34125;BMP280;20110;53.120;5.786;2023-12-29T08:56:25;100287.28;;;15.55
34125;BMP280;20110;53.120;5.786;2023-12-29T08:58:51;100125.91;;;14.45
34125;BMP280;20110;53.120;5.786;2023-12-29T09:01:18;100301.72;;;15.78
34125;BMP280;20110;53.120;5.786;2023-12-29T09:03:44;100276.69;;;15.93
34125;BMP280;20110;53.120;5.786;2023-12-29T09:06:11;100283.88;;;15.91
34125;BMP280;20110;53.120;5.786;2023-12-29T09:08:37;100187.84;;;15.31
34125;BMP280;20110;53.120;5.786;2023-12-29T09:11:04;100250.91;;;15.98
34125;BMP280;20110;53.120;5.786;2023-12-29T09:13:30;100239.81;;;16.11
34125;BMP280;20110;53.120;5.786;2023-12-29T09:15:55;100190.41;;;15.85
34125;BMP280;20110;53.120;5.786;2023-12-29T09:18:21;100271.97;;;16.49
34125;BMP280;20110;53.120;5.786;2023-12-29T09:20:47;100269.13;;;16.28
34125;BMP280;20110;53.120;5.786;2023-12-29T09:23:13;100057.00;;;14.97
34125;BMP280;20110;53.120;5.786;2023-12-29T09:25:40;100258.97;;;16.07
34125;BMP280;20110;53.120;5.786;2023-12-29T09:28:05;100283.78;;;16.08
34125;BMP280;20110;53.120;5.786;2023-12-29T09:30:31;100175.69;;;15.21
34125;BMP280;20110;53.120;5.786;2023-12-29T09:32:57;100225.38;;;15.77
34125;BMP280;20110;53.120;5.786;2023-12-29T09:35:22;100282.38;;;16.16
34125;BMP280;20110;53.120;5.786;2023-12-29T09:37:48;100271.50;;;16.14
34125;BMP280;20110;53.120;5.786;2023-12-29T09:40:14;100259.53;;;16.06
34125;BMP280;20110;53.120;5.786;2023-12-29T09:42:42;100272.97;;;16.35
34125;BMP280;20110;53.120;5.786;2023-12-29T09:45:10;100187.34;;;15.79
34125;BMP280;20110;53.120;5.786;2023-12-29T09:47:42;100294.69;;;16.39
34125;BMP280;20110;53.120;5.786;2023-12-29T09:50:10;100260.34;;;16.08
34125;BMP280;20110;53.120;5.786;2023-12-29T09:52:41;100193.72;;;15.47
34125;BMP280;20110;53.120;5.786;2023-12-29T09:55:10;100291.44;;;16.31
34125;BMP280;20110;53.120;5.786;2023-12-29T09:57:37;100265.03;;;16.08
34125;BMP280;20110;53.120;5.786;2023-12-29T10:00:04;100275.47;;;16.13
34125;BMP280;20110;53.120;5.786;2023-12-29T10:02:31;100281.25;;;16.10
34125;BMP280;20110;53.120;5.786;2023-12-29T10:04:57;100281.06;;;15.89
34125;BMP280;20110;53.120;5.786;2023-12-29T10:07:26;100293.38;;;15.74
34125;BMP280;20110;53.120;5.786;2023-12-29T10:09:54;100284.72;;;15.57
34125;BMP280;20110;53.120;5.786;2023-12-29T10:12:21;100272.47;;;15.27
34125;BMP280;20110;53.120;5.786;2023-12-29T10:15:06;100281.84;;;15.45
34125;BMP280;20110;53.120;5.786;2023-12-29T10:20:25;100269.44;;;15.40
34125;BMP280;20110;53.120;5.786;2023-12-29T10:23:08;100291.44;;;15.48
34125;BMP280;20110;53.120;5.786;2023-12-29T10:25:39;100303.41;;;15.47
34125;BMP280;20110;53.120;5.786;2023-12-29T10:28:09;100292.75;;;15.30
34125;BMP280;20110;53.120;5.786;2023-12-29T10:30:36;100277.84;;;15.10
34125;BMP280;20110;53.120;5.786;2023-12-29T10:33:04;100205.03;;;14.57
34125;BMP280;20110;53.120;5.786;2023-12-29T10:35:30;100229.13;;;14.67
34125;BMP280;20110;53.120;5.786;2023-12-29T10:38:16;100251.34;;;15.04
34125;BMP280;20110;53.120;5.786;2023-12-29T10:40:42;100287.91;;;15.46
34125;BMP280;20110;53.120;5.786;2023-12-29T10:43:09;100304.56;;;15.54
34125;BMP280;20110;53.120;5.786;2023-12-29T10:45:35;100292.16;;;15.49
34125;BMP280;20110;53.120;5.786;2023-12-29T10:48:02;100154.44;;;14.42
34125;BMP280;20110;53.120;5.786;2023-12-29T10:50:28;100309.56;;;15.67
34125;BMP280;20110;53.120;5.786;2023-12-29T10:53:15;100321.59;;;15.85
34125;BMP280;20110;53.120;5.786;2023-12-29T10:55:44;100278.94;;;15.87
34125;BMP280;20110;53.120;5.786;2023-12-29T10:58:10;100318.09;;;16.38
34125;BMP280;20110;53.120;5.786;2023-12-29T11:00:36;100303.72;;;16.34
34125;BMP280;20110;53.120;5.786;2023-12-29T11:03:01;100319.06;;;16.33
34125;BMP280;20110;53.120;5.786;2023-12-29T11:05:27;100227.34;;;15.77
34125;BMP280;20110;53.120;5.786;2023-12-29T11:07:54;100210.38;;;15.65
34125;BMP280;20110;53.120;5.786;2023-12-29T11:10:21;100250.19;;;15.88
34125;BMP280;20110;53.120;5.786;2023-12-29T11:12:48;100329.66;;;16.31
34125;BMP280;20110;53.120;5.786;2023-12-29T11:15:15;100169.66;;;15.20
34125;BMP280;20110;53.120;5.786;2023-12-29T11:17:42;100321.41;;;16.10
34125;BMP280;20110;53.120;5.786;2023-12-29T11:20:15;100339.38;;;16.27
34125;BMP280;20110;53.120;5.786;2023-12-29T11:22:42;100344.03;;;16.36
34125;BMP280;20110;53.120;5.786;2023-12-29T11:25:09;100342.91;;;16.39
34125;BMP280;20110;53.120;5.786;2023-12-29T11:27:35;100282.22;;;16.05
34125;BMP280;20110;53.120;5.786;2023-12-29T11:30:03;100350.97;;;16.48
34125;BMP280;20110;53.120;5.786;2023-12-29T11:32:45;100340.97;;;16.68
34125;BMP280;20110;53.120;5.786;2023-12-29T11:35:16;100321.06;;;16.42
34125;BMP280;20110;53.120;5.786;2023-12-29T11:38:08;100332.75;;;16.47
34125;BMP280;20110;53.120;5.786;2023-12-29T11:40:44;100306.81;;;16.49
34125;BMP280;20110;53.120;5.786;2023-12-29T11:43:15;100265.66;;;16.54
34125;BMP280;20110;53.120;5.786;2023-12-29T11:45:42;100297.38;;;16.58
34125;BMP280;20110;53.120;5.786;2023-12-29T11:48:08;100263.94;;;16.40
34125;BMP280;20110;53.120;5.786;2023-12-29T11:50:35;100255.75;;;16.57
34125;BMP280;20110;53.120;5.786;2023-12-29T11:53:06;100359.44;;;17.22
34125;BMP280;20110;53.120;5.786;2023-12-29T11:55:35;100346.84;;;17.24
34125;BMP280;20110;53.120;5.786;2023-12-29T11:58:01;100327.50;;;17.36
34125;BMP280;20110;53.120;5.786;2023-12-29T12:00:41;100271.69;;;16.74
34125;BMP280;20110;53.120;5.786;2023-12-29T12:03:36;100335.56;;;16.20
34125;BMP280;20110;53.120;5.786;2023-12-29T12:06:02;100349.03;;;16.03
34125;BMP280;20110;53.120;5.786;2023-12-29T12:10:55;100337.75;;;15.68
34125;BMP280;20110;53.120;5.786;2023-12-29T12:13:44;100357.47;;;15.72
34125;BMP280;20110;53.120;5.786;2023-12-29T12:19:10;100347.34;;;15.44
34125;BMP280;20110;53.120;5.786;2023-12-29T12:21:37;100381.41;;;15.26
34125;BMP280;20110;53.120;5.786;2023-12-29T12:24:04;100361.53;;;15.20
34125;BMP280;20110;53.120;5.786;2023-12-29T12:26:30;100355.47;;;15.02
34125;BMP280;20110;53.120;5.786;2023-12-29T12:28:57;100273.13;;;14.32
34125;BMP280;20110;53.120;5.786;2023-12-29T12:31:23;100284.19;;;14.45
34125;BMP280;20110;53.120;5.786;2023-12-29T12:33:58;100364.44;;;15.14
34125;BMP280;20110;53.120;5.786;2023-12-29T12:36:26;100346.19;;;15.03
34125;BMP280;20110;53.120;5.786;2023-12-29T12:38:53;100379.84;;;15.06
34125;BMP280;20110;53.120;5.786;2023-12-29T12:41:20;100347.13;;;14.81
34125;BMP280;20110;53.120;5.786;2023-12-29T12:43:57;100297.56;;;14.45
34125;BMP280;20110;53.120;5.786;2023-12-29T12:46:25;100367.97;;;14.99
34125;BMP280;20110;53.120;5.786;2023-12-29T12:48:51;100372.28;;;14.95
34125;BMP280;20110;53.120;5.786;2023-12-29T12:51:19;100333.84;;;14.90
34125;BMP280;20110;53.120;5.786;2023-12-29T12:53:46;100373.41;;;15.09
34125;BMP280;20110;53.120;5.786;2023-12-29T12:56:14;100352.38;;;14.88
34125;BMP280;20110;53.120;5.786;2023-12-29T12:58:40;100380.63;;;15.16
34125;BMP280;20110;53.120;5.786;2023-12-29T13:01:06;100353.03;;;14.96
34125;BMP280;20110;53.120;5.786;2023-12-29T13:03:32;100349.94;;;15.17
34125;BMP280;20110;53.120;5.786;2023-12-29T13:05:59;100379.97;;;15.60
34125;BMP280;20110;53.120;5.786;2023-12-29T13:08:26;100383.91;;;15.59
34125;BMP280;20110;53.120;5.786;2023-12-29T13:10:52;100365.09;;;15.49
34125;BMP280;20110;53.120;5.786;2023-12-29T13:13:18;100384.09;;;15.70
34125;BMP280;20110;53.120;5.786;2023-12-29T13:15:51;100345.44;;;15.37
34125;BMP280;20110;53.120;5.786;2023-12-29T13:18:28;100395.59;;;15.63
34125;BMP280;20110;53.120;5.786;2023-12-29T13:20:55;100383.75;;;15.57
34125;BMP280;20110;53.120;5.786;2023-12-29T13:23:25;100393.63;;;15.64
34125;BMP280;20110;53.120;5.786;2023-12-29T13:25:54;100327.94;;;15.09
34125;BMP280;20110;53.120;5.786;2023-12-29T13:28:20;100368.84;;;15.19
34125;BMP280;20110;53.120;5.786;2023-12-29T13:30:47;100358.16;;;15.02
34125;BMP280;20110;53.120;5.786;2023-12-29T13:33:35;100413.72;;;15.21
34125;BMP280;20110;53.120;5.786;2023-12-29T13:36:36;100392.91;;;15.02
34125;BMP280;20110;53.120;5.786;2023-12-29T13:39:13;100352.53;;;14.73
34125;BMP280;20110;53.120;5.786;2023-12-29T13:41:42;100359.16;;;15.07
34125;BMP280;20110;53.120;5.786;2023-12-29T13:44:08;100302.53;;;14.66
34125;BMP280;20110;53.120;5.786;2023-12-29T13:46:35;100324.63;;;15.18
34125;BMP280;20110;53.120;5.786;2023-12-29T13:49:02;100324.25;;;15.05
34125;BMP280;20110;53.120;5.786;2023-12-29T13:51:28;100339.06;;;15.32
34125;BMP280;20110;53.120;5.786;2023-12-29T13:54:01;100311.44;;;15.03
34125;BMP280;20110;53.120;5.786;2023-12-29T13:56:27;100369.16;;;15.67
34125;BMP280;20110;53.120;5.786;2023-12-29T13:58:52;100292.19;;;15.31
34125;BMP280;20110;53.120;5.786;2023-12-29T14:01:18;100294.47;;;14.91
34125;BMP280;20110;53.120;5.786;2023-12-29T14:04:00;100380.56;;;15.24
34125;BMP280;20110;53.120;5.786;2023-12-29T14:06:32;100363.16;;;14.98
34125;BMP280;20110;53.120;5.786;2023-12-29T14:09:03;100327.03;;;14.55